To NAV CANADA Home Page Login to a new session Search on AWWS site Feedback and Comments Disclaimer Vers la page française équivalente Tips FAQ What's new on the site To the Forecasts and Observations / NOTAM section To "File a Flight Plan" website Publications and other links Update of the User's profile FIC Telephone Numbers My Weather Data Folder Route Weather Data Regional Weather Data Local Weather Data To the Forecasts and Observations / NOTAM section
Request Generated 08/30/2015 at 13:52:16 UTC . Weather information available at that time is displayed.

METAR/TAF

LA RONGE/LA RONGE (BARBER FIELD)/SK    

METAR CYVC 301300Z 11010G16KT 15SM OVC100 16/14 A2956 RMK AC8 SLP012
DENSITY ALT 2000FT=
METAR CYVC 301200Z 09007KT 15SM OVC100 16/13 A2957 RMK AC8 SLP015
DENSITY ALT 2000FT=
METAR CYVC 301100Z 11007KT 15SM BKN100 16/13 A2960 RMK AC7 SLP026
DENSITY ALT 1900FT=

TAF CYVC 301238Z 3013/3101 09008KT P6SM BKN100
BECMG 3014/3016 12012G22KT
BECMG 3018/3020 22012KT
RMK NXT FCST BY 301900Z=
Your time UTC time
Weather data provided by Environment Canada and NAV CANADA